Terminal Aerodrome Forecast
Issued by NWS Pueblo, CO

Home | Current Version | Previous Version | Text Only | Print | Product List | Glossary On
Versions: 1 2 3 4 5 6 7 8 9 10 11 12 13 14 15 16
000
FTUS45 KPUB 240319 AAA
TAFALS
TAF AMD
KALS 240319Z 2403/2424 32014KT P6SM SCT120 BKN200
     FM240600 VRB06KT P6SM SCT200
     FM241600 17008KT P6SM FEW120 SCT200
     FM242000 24014G24KT P6SM SCT100 SCT200=

USA.gov is the U.S. government's official web portal to all federal, state and local government web resources and services.